Аэропорт: Усть-Каменогорск. Усть-Каменогорск

ICAO: UASK

METAR:
2020-08-09 22:00:00
UASK 092200Z 07001MPS 9999 SCT176 14/10 Q1002 R30/CLRD60 NOSIG RMK QFE726/0969
METAR:
Информация по данной станции не доступна